首页
METAR-TAF:

METAR-TAF

机场 :

乔斯, 尼日利亚

纬度: 09-52N, 经度: 008-54E, 海拔: 1295米

METAR: 丢失

时间: 03:31 (02:31 UTC)

预报

该预报发布于3小时和31分钟前的23:00 UTC
预报有效从25日的 00点(UTC)到 26日的 06点(UTC)
风速2节,风向多变
能见度10公里或以上
散云层高于600英尺
少量云层高于1500英尺, 积雨云.
雷暴
几率 30% :
短暂存在
从 25日的 01点(UTC)到 25日的 04点(UTC)
风速18节,风向,有时为30节阵风
能見度: 5000
多云层高于600英尺
少量云层高于1700英尺, 积雨云.
雷暴, 雨
成为
从 25日的 04点(UTC)到 25日的 06点(UTC)
少量云层高于500英尺
几率 30% :
短暂存在
从 25日的 06点(UTC)到 25日的 08点(UTC)
多云层高于500英尺
轻雾
成为
从 25日的 08点(UTC)到 25日的 11点(UTC)
风速10节,风向西转西南
多云层高于1200英尺
短暂存在
从 25日的 15点(UTC)到 25日的 19点(UTC)
散云层高于1000英尺
少量云层高于1700英尺, 积雨云.
雷暴,

TAF: DNJO 242300Z 2500/2606 VRB02KT 9999 TS SCT006 FEW015CB PROB30 TEMPO 2501/2504 08018G30KT 5000 TSRA BKN006 FEW017CB BECMG 2504/2506 NSW FEW005 PROB30 TEMPO 2506/2508 BR BKN005 BECMG 2508/2511 25010KT BKN012 TEMPO 2515/2519 TS SCT010 FEW017CB

超过4000个机场的气象观测和天气预报(METAR&TAF报告)。

可查询的气象台以黄色和红色小点在地图上表示。

将鼠标移到小点上方,可查看气象台名称。

然后点击查看天气观测和预报。

如需切换地图:点击带黑十字的绿色按钮放大地图;点击带横线的绿色按钮缩小地图;或者点击绿色箭头查看邻近地区的地图。


METAR-TAF: